Accueil
METAR-TAF:

METAR-TAF

Aéroports :

Aéroport de Béziers-Cap d'Agde

Béziers, France

latitude: 43-19N, longitude: 003-21E, altitude: 17 m

Observation

Le bulletin a été fait il y a 38 minutes, à 17:30 UTC
Vent 13 kt de nord-ouest
Température 11°C
Humidité 47%
Pression 1030 hPa
Visibilité 10 km ou plus
pas de nuages en-dessous de 1500 mètres et pas de cumulonimbus.

METAR: LFMU 021730Z AUTO 31013KT CAVOK 11/M00 Q1030 NOSIG

Heure: 19:08 (18:08 UTC)

Prévision

Le bulletin a été fait il y a 4 heures et 8 minutes, à 14:00 UTC
Prévision valable du 02 à 15 UTC au 03 à 15 UTC
Vent 12 kt de nord-ouest
Visibilité 10 km ou plus
pas de nuages en-dessous de 1500 mètres et pas de cumulonimbus.
Probabilité 40% :
Temporairement
du 02 à 15 UTC au 02 à 17 UTC
Vent 15 kt de nord/nord-ouest avec des rafales jusqu'à 25 kt

TAF: LFMU 021400Z 0215/0315 31012KT CAVOK PROB40 TEMPO 0215/0217 33015G25KT

Observations et prévisions météorologiques de plus de 4000 aéroports (messages METAR et TAF).

Les stations disponibles sont représentées par des disques jaunes et rouges sur la carte.

Passer la souris dessus pour voir le nom de la station.

Cliquer dessus pour voir les observations et prévisions météorologiques.

Pour changer de carte: cliquez sur les boutons verts avec une croix noire pour zoomer, sur le bouton vert avec un tiret pour effectuer un zoom arrière, ou sur les flèches vertes pour les cartes adjacentes.


METAR-TAF: